Etusivu
METAR-TAF:

METAR-TAF

Lentoasemat :

Kairon kansainvälinen lentoasema

Kairo, Egypti

Leveyspiiri: 30-08N, Pituuspiiri: 031-24E, korkeus merenpinnasta: 64 m

Tämänhetkinen sää

Tämä raportti tehtiin 34 minuuttia sitten, kello 13.00 UTC
Tuuli 9 kn pohjoisesta/koillisesta
Lämpötila 37°C
Kosteus 16%
Ilmanpaine 1010 hPa
Näkyvyys 10 km tai enemmän
ei pilviä alle 1500 m:ssä eikä cumulonimbus-pilviä

METAR: HECA 201300Z 02009KT CAVOK 37/07 Q1010 NOSIG

Aika: 15:34 (13:34 UTC)

Sääennuste

Tämä raportti tehtiin 2 tuntia ja 34 minuuttia sitten, kello 11.00 UTC
Ennuste voimassa 20. päivästä klo 12 UTC - 21. päivään klo 18 UTC
Tuuli 12 kn koillisesta
Näkyvyys 10 km tai enemmän
ei pilviä alle 1500 m:ssä eikä cumulonimbus-pilviä
Todennäköisyys 30% :
Ajoittain
21. päivästä klo 00 UTC - 21. päivään klo 08 UTC
Tuuli 7 kn pohjoisesta/koillisesta
Näkyvyys: 4000 m
usvaa

TAF: HECA 201100Z 2012/2118 05012KT CAVOK PROB30 TEMPO 2100/2108 03007KT 4000 HZ NSC

Säähavainnot ja -ennusteet yli 4000 lentoasemalta (METAR- ja TAF-raportit).

Käytössä olevat sääasemat on merkitty karttaan keltaisilla ja punaisilla pisteillä.

Aseta hiiri pisteen päälle nähdäksesi sääaseman nimen.

Klikkaa sitten nähdäksesi säähavainnot ja -ennusteet.

Kartan vaihtaminen: klikkaa mustalla rastilla varustettuja vihreitä pisteitä, niin voit zoomata sisään; viivalla varustettua vihreää pistettä, niin voit zoomata ulos tai vihreitä nuolia, niin pääset viereisille kartoille.


METAR-TAF: